sensor_id;sensor_type;location;lat;lon;timestamp;P1;P2;P0
74880;PMS5003;63427;49.654;6.596;2022-10-26T00:00:38;12;12;
74880;PMS5003;63427;49.654;6.596;2022-10-26T00:03:03;11;11;
74880;PMS5003;63427;49.654;6.596;2022-10-26T00:05:31;13;12;
74880;PMS5003;63427;49.654;6.596;2022-10-26T00:07:55;13;13;
74880;PMS5003;63427;49.654;6.596;2022-10-26T00:10:20;14;13;
74880;PMS5003;63427;49.654;6.596;2022-10-26T00:12:46;15;15;
74880;PMS5003;63427;49.654;6.596;2022-10-26T00:15:10;14;13;
74880;PMS5003;63427;49.654;6.596;2022-10-26T00:17:35;14;14;
74880;PMS5003;63427;49.654;6.596;2022-10-26T00:20:01;12;12;
74880;PMS5003;63427;49.654;6.596;2022-10-26T00:22:26;10;9;
74880;PMS5003;63427;49.654;6.596;2022-10-26T00:24:52;14;14;
74880;PMS5003;63427;49.654;6.596;2022-10-26T00:27:17;13;13;
74880;PMS5003;63427;49.654;6.596;2022-10-26T00:29:42;15;13;
74880;PMS5003;63427;49.654;6.596;2022-10-26T00:32:08;14;14;
74880;PMS5003;63427;49.654;6.596;2022-10-26T00:34:33;13;13;
74880;PMS5003;63427;49.654;6.596;2022-10-26T00:36:58;15;13;
74880;PMS5003;63427;49.654;6.596;2022-10-26T00:39:24;10;10;
74880;PMS5003;63427;49.654;6.596;2022-10-26T00:41:49;13;13;
74880;PMS5003;63427;49.654;6.596;2022-10-26T00:46:40;12;12;
74880;PMS5003;63427;49.654;6.596;2022-10-26T00:49:11;10;10;
74880;PMS5003;63427;49.654;6.596;2022-10-26T00:51:31;10;10;
74880;PMS5003;63427;49.654;6.596;2022-10-26T00:53:56;10;10;
74880;PMS5003;63427;49.654;6.596;2022-10-26T00:56:21;13;13;
74880;PMS5003;63427;49.654;6.596;2022-10-26T00:58:46;9;9;
74880;PMS5003;63427;49.654;6.596;2022-10-26T01:01:12;11;11;
74880;PMS5003;63427;49.654;6.596;2022-10-26T01:03:37;10;10;
74880;PMS5003;63427;49.654;6.596;2022-10-26T01:06:03;12;12;
74880;PMS5003;63427;49.654;6.596;2022-10-26T01:08:28;13;13;
74880;PMS5003;63427;49.654;6.596;2022-10-26T01:10:54;13;12;
74880;PMS5003;63427;49.654;6.596;2022-10-26T01:13:19;15;14;
74880;PMS5003;63427;49.654;6.596;2022-10-26T01:15:47;10;10;
74880;PMS5003;63427;49.654;6.596;2022-10-26T01:18:10;11;11;
74880;PMS5003;63427;49.654;6.596;2022-10-26T01:20:43;13;12;
74880;PMS5003;63427;49.654;6.596;2022-10-26T01:23:01;12;12;
74880;PMS5003;63427;49.654;6.596;2022-10-26T01:25:33;15;14;
74880;PMS5003;63427;49.654;6.596;2022-10-26T01:27:51;11;11;
74880;PMS5003;63427;49.654;6.596;2022-10-26T01:30:18;12;12;
74880;PMS5003;63427;49.654;6.596;2022-10-26T01:32:44;15;14;
74880;PMS5003;63427;49.654;6.596;2022-10-26T01:35:08;14;14;
74880;PMS5003;63427;49.654;6.596;2022-10-26T01:37:35;12;12;
74880;PMS5003;63427;49.654;6.596;2022-10-26T01:39:59;11;10;
74880;PMS5003;63427;49.654;6.596;2022-10-26T01:42:23;11;10;
74880;PMS5003;63427;49.654;6.596;2022-10-26T01:44:51;13;11;
74880;PMS5003;63427;49.654;6.596;2022-10-26T01:47:14;10;9;
74880;PMS5003;63427;49.654;6.596;2022-10-26T01:49:41;11;11;
74880;PMS5003;63427;49.654;6.596;2022-10-26T01:52:05;15;14;
74880;PMS5003;63427;49.654;6.596;2022-10-26T01:54:33;10;10;
74880;PMS5003;63427;49.654;6.596;2022-10-26T01:56:56;14;13;
74880;PMS5003;63427;49.654;6.596;2022-10-26T01:59:25;10;10;
74880;PMS5003;63427;49.654;6.596;2022-10-26T02:01:51;13;12;
74880;PMS5003;63427;49.654;6.596;2022-10-26T02:04:15;11;10;
74880;PMS5003;63427;49.654;6.596;2022-10-26T02:06:40;9;9;
74880;PMS5003;63427;49.654;6.596;2022-10-26T02:09:05;8;8;
74880;PMS5003;63427;49.654;6.596;2022-10-26T02:11:31;11;11;
74880;PMS5003;63427;49.654;6.596;2022-10-26T02:13:54;10;9;
74880;PMS5003;63427;49.654;6.596;2022-10-26T02:16:20;12;11;
74880;PMS5003;63427;49.654;6.596;2022-10-26T02:18:45;10;9;
74880;PMS5003;63427;49.654;6.596;2022-10-26T02:21:10;9;9;
74880;PMS5003;63427;49.654;6.596;2022-10-26T02:23:35;10;9;
74880;PMS5003;63427;49.654;6.596;2022-10-26T02:26:00;13;13;
74880;PMS5003;63427;49.654;6.596;2022-10-26T02:28:26;9;9;
74880;PMS5003;63427;49.654;6.596;2022-10-26T02:30:51;11;10;
74880;PMS5003;63427;49.654;6.596;2022-10-26T02:33:16;11;11;
74880;PMS5003;63427;49.654;6.596;2022-10-26T02:35:42;10;10;
74880;PMS5003;63427;49.654;6.596;2022-10-26T02:38:07;13;13;
74880;PMS5003;63427;49.654;6.596;2022-10-26T02:40:32;9;9;
74880;PMS5003;63427;49.654;6.596;2022-10-26T02:42:59;10;10;
74880;PMS5003;63427;49.654;6.596;2022-10-26T02:45:24;9;8;
74880;PMS5003;63427;49.654;6.596;2022-10-26T02:47:49;10;10;
74880;PMS5003;63427;49.654;6.596;2022-10-26T02:50:14;8;8;
74880;PMS5003;63427;49.654;6.596;2022-10-26T02:52:40;11;11;
74880;PMS5003;63427;49.654;6.596;2022-10-26T02:55:06;7;7;
74880;PMS5003;63427;49.654;6.596;2022-10-26T02:57:31;11;11;
74880;PMS5003;63427;49.654;6.596;2022-10-26T02:59:56;8;8;
74880;PMS5003;63427;49.654;6.596;2022-10-26T03:02:21;11;10;
74880;PMS5003;63427;49.654;6.596;2022-10-26T03:04:47;11;10;
74880;PMS5003;63427;49.654;6.596;2022-10-26T03:07:12;13;13;
74880;PMS5003;63427;49.654;6.596;2022-10-26T03:09:37;11;11;
74880;PMS5003;63427;49.654;6.596;2022-10-26T03:12:03;10;9;
74880;PMS5003;63427;49.654;6.596;2022-10-26T03:14:28;10;10;
74880;PMS5003;63427;49.654;6.596;2022-10-26T03:16:53;9;8;
74880;PMS5003;63427;49.654;6.596;2022-10-26T03:19:19;12;12;
74880;PMS5003;63427;49.654;6.596;2022-10-26T03:21:44;10;9;
74880;PMS5003;63427;49.654;6.596;2022-10-26T03:24:09;8;8;
74880;PMS5003;63427;49.654;6.596;2022-10-26T03:26:35;9;9;
74880;PMS5003;63427;49.654;6.596;2022-10-26T03:29:00;6;6;
74880;PMS5003;63427;49.654;6.596;2022-10-26T03:31:25;8;8;
74880;PMS5003;63427;49.654;6.596;2022-10-26T03:33:51;11;11;
74880;PMS5003;63427;49.654;6.596;2022-10-26T03:36:16;10;10;
74880;PMS5003;63427;49.654;6.596;2022-10-26T03:38:42;9;8;
74880;PMS5003;63427;49.654;6.596;2022-10-26T03:41:07;10;10;
74880;PMS5003;63427;49.654;6.596;2022-10-26T03:43:33;8;8;
74880;PMS5003;63427;49.654;6.596;2022-10-26T03:45:58;9;8;
74880;PMS5003;63427;49.654;6.596;2022-10-26T03:48:23;11;10;
74880;PMS5003;63427;49.654;6.596;2022-10-26T03:50:49;9;8;
74880;PMS5003;63427;49.654;6.596;2022-10-26T03:53:14;11;10;
74880;PMS5003;63427;49.654;6.596;2022-10-26T03:55:42;12;11;
74880;PMS5003;63427;49.654;6.596;2022-10-26T03:58:05;8;8;
74880;PMS5003;63427;49.654;6.596;2022-10-26T04:00:30;9;9;
74880;PMS5003;63427;49.654;6.596;2022-10-26T04:02:56;10;10;
74880;PMS5003;63427;49.654;6.596;2022-10-26T04:05:21;10;10;
74880;PMS5003;63427;49.654;6.596;2022-10-26T04:07:50;8;8;
74880;PMS5003;63427;49.654;6.596;2022-10-26T04:10:12;8;8;
74880;PMS5003;63427;49.654;6.596;2022-10-26T04:12:37;7;7;
74880;PMS5003;63427;49.654;6.596;2022-10-26T04:15:02;8;8;
74880;PMS5003;63427;49.654;6.596;2022-10-26T04:17:28;11;10;
74880;PMS5003;63427;49.654;6.596;2022-10-26T04:19:53;8;8;
74880;PMS5003;63427;49.654;6.596;2022-10-26T04:22:19;9;9;
74880;PMS5003;63427;49.654;6.596;2022-10-26T04:24:44;14;14;
74880;PMS5003;63427;49.654;6.596;2022-10-26T04:27:09;12;11;
74880;PMS5003;63427;49.654;6.596;2022-10-26T04:29:35;12;11;
74880;PMS5003;63427;49.654;6.596;2022-10-26T04:32:00;8;7;
74880;PMS5003;63427;49.654;6.596;2022-10-26T04:34:25;11;11;
74880;PMS5003;63427;49.654;6.596;2022-10-26T04:36:51;7;7;
74880;PMS5003;63427;49.654;6.596;2022-10-26T04:39:16;8;8;
74880;PMS5003;63427;49.654;6.596;2022-10-26T04:41:42;8;8;
74880;PMS5003;63427;49.654;6.596;2022-10-26T04:44:07;8;8;
74880;PMS5003;63427;49.654;6.596;2022-10-26T04:46:33;9;9;
74880;PMS5003;63427;49.654;6.596;2022-10-26T04:48:58;9;8;
74880;PMS5003;63427;49.654;6.596;2022-10-26T04:51:23;8;7;
74880;PMS5003;63427;49.654;6.596;2022-10-26T04:53:49;9;9;
74880;PMS5003;63427;49.654;6.596;2022-10-26T04:56:14;9;8;
74880;PMS5003;63427;49.654;6.596;2022-10-26T04:58:40;8;8;
74880;PMS5003;63427;49.654;6.596;2022-10-26T05:01:05;8;8;
74880;PMS5003;63427;49.654;6.596;2022-10-26T05:03:31;7;6;
74880;PMS5003;63427;49.654;6.596;2022-10-26T05:05:57;8;8;
74880;PMS5003;63427;49.654;6.596;2022-10-26T05:08:22;10;10;
74880;PMS5003;63427;49.654;6.596;2022-10-26T05:10:47;9;8;
74880;PMS5003;63427;49.654;6.596;2022-10-26T05:13:12;8;8;
74880;PMS5003;63427;49.654;6.596;2022-10-26T05:15:38;11;10;
74880;PMS5003;63427;49.654;6.596;2022-10-26T05:18:04;9;8;
74880;PMS5003;63427;49.654;6.596;2022-10-26T05:20:30;11;11;
74880;PMS5003;63427;49.654;6.596;2022-10-26T05:22:55;9;9;
74880;PMS5003;63427;49.654;6.596;2022-10-26T05:25:20;10;10;
74880;PMS5003;63427;49.654;6.596;2022-10-26T05:27:45;9;9;
74880;PMS5003;63427;49.654;6.596;2022-10-26T05:30:11;7;7;
74880;PMS5003;63427;49.654;6.596;2022-10-26T05:32:36;7;7;
74880;PMS5003;63427;49.654;6.596;2022-10-26T05:35:02;8;7;
74880;PMS5003;63427;49.654;6.596;2022-10-26T05:37:27;9;9;
74880;PMS5003;63427;49.654;6.596;2022-10-26T05:39:52;13;13;
74880;PMS5003;63427;49.654;6.596;2022-10-26T05:42:18;10;10;
74880;PMS5003;63427;49.654;6.596;2022-10-26T05:44:43;9;9;
74880;PMS5003;63427;49.654;6.596;2022-10-26T05:47:09;8;8;
74880;PMS5003;63427;49.654;6.596;2022-10-26T05:49:34;16;16;
74880;PMS5003;63427;49.654;6.596;2022-10-26T05:51:59;12;12;
74880;PMS5003;63427;49.654;6.596;2022-10-26T05:54:25;11;11;
74880;PMS5003;63427;49.654;6.596;2022-10-26T05:56:51;11;11;
74880;PMS5003;63427;49.654;6.596;2022-10-26T05:59:16;9;9;
74880;PMS5003;63427;49.654;6.596;2022-10-26T06:01:46;10;10;
74880;PMS5003;63427;49.654;6.596;2022-10-26T06:04:10;9;8;
74880;PMS5003;63427;49.654;6.596;2022-10-26T06:06:35;9;8;
74880;PMS5003;63427;49.654;6.596;2022-10-26T06:08:58;10;10;
74880;PMS5003;63427;49.654;6.596;2022-10-26T06:11:23;6;6;
74880;PMS5003;63427;49.654;6.596;2022-10-26T06:13:48;8;8;
74880;PMS5003;63427;49.654;6.596;2022-10-26T06:16:19;8;8;
74880;PMS5003;63427;49.654;6.596;2022-10-26T06:18:41;9;9;
74880;PMS5003;63427;49.654;6.596;2022-10-26T06:21:08;9;8;
74880;PMS5003;63427;49.654;6.596;2022-10-26T06:23:39;7;7;
74880;PMS5003;63427;49.654;6.596;2022-10-26T06:25:57;6;6;
74880;PMS5003;63427;49.654;6.596;2022-10-26T06:28:25;9;9;
74880;PMS5003;63427;49.654;6.596;2022-10-26T06:30:46;10;10;
74880;PMS5003;63427;49.654;6.596;2022-10-26T06:33:12;8;8;
74880;PMS5003;63427;49.654;6.596;2022-10-26T06:35:40;6;6;
74880;PMS5003;63427;49.654;6.596;2022-10-26T06:38:03;9;9;
74880;PMS5003;63427;49.654;6.596;2022-10-26T06:40:29;16;15;
74880;PMS5003;63427;49.654;6.596;2022-10-26T06:42:53;24;22;
74880;PMS5003;63427;49.654;6.596;2022-10-26T06:45:18;18;18;
74880;PMS5003;63427;49.654;6.596;2022-10-26T06:47:45;15;14;
74880;PMS5003;63427;49.654;6.596;2022-10-26T06:50:11;17;17;
74880;PMS5003;63427;49.654;6.596;2022-10-26T06:52:34;15;15;
74880;PMS5003;63427;49.654;6.596;2022-10-26T06:55:00;14;14;
74880;PMS5003;63427;49.654;6.596;2022-10-26T06:57:26;15;14;
74880;PMS5003;63427;49.654;6.596;2022-10-26T06:59:52;12;11;
74880;PMS5003;63427;49.654;6.596;2022-10-26T07:02:16;17;17;
74880;PMS5003;63427;49.654;6.596;2022-10-26T07:04:41;9;9;
74880;PMS5003;63427;49.654;6.596;2022-10-26T07:07:07;7;6;
74880;PMS5003;63427;49.654;6.596;2022-10-26T07:09:32;8;8;
74880;PMS5003;63427;49.654;6.596;2022-10-26T07:11:57;7;7;
74880;PMS5003;63427;49.654;6.596;2022-10-26T07:14:22;10;10;
74880;PMS5003;63427;49.654;6.596;2022-10-26T07:16:47;9;9;
74880;PMS5003;63427;49.654;6.596;2022-10-26T07:19:13;7;7;
74880;PMS5003;63427;49.654;6.596;2022-10-26T07:21:38;8;7;
74880;PMS5003;63427;49.654;6.596;2022-10-26T07:24:04;7;7;
74880;PMS5003;63427;49.654;6.596;2022-10-26T07:26:29;8;8;
74880;PMS5003;63427;49.654;6.596;2022-10-26T07:28:54;5;5;
74880;PMS5003;63427;49.654;6.596;2022-10-26T07:31:20;6;6;
74880;PMS5003;63427;49.654;6.596;2022-10-26T07:33:45;6;6;
74880;PMS5003;63427;49.654;6.596;2022-10-26T07:36:10;7;7;
74880;PMS5003;63427;49.654;6.596;2022-10-26T07:38:36;6;6;
74880;PMS5003;63427;49.654;6.596;2022-10-26T07:41:01;7;7;
74880;PMS5003;63427;49.654;6.596;2022-10-26T07:43:26;7;7;
74880;PMS5003;63427;49.654;6.596;2022-10-26T07:45:52;7;6;
74880;PMS5003;63427;49.654;6.596;2022-10-26T07:48:17;7;6;
74880;PMS5003;63427;49.654;6.596;2022-10-26T07:50:42;8;8;
74880;PMS5003;63427;49.654;6.596;2022-10-26T07:53:07;6;6;
74880;PMS5003;63427;49.654;6.596;2022-10-26T07:55:32;5;5;
74880;PMS5003;63427;49.654;6.596;2022-10-26T07:57:58;5;5;
74880;PMS5003;63427;49.654;6.596;2022-10-26T08:00:23;8;7;
74880;PMS5003;63427;49.654;6.596;2022-10-26T08:02:48;6;5;
74880;PMS5003;63427;49.654;6.596;2022-10-26T08:05:14;5;5;
74880;PMS5003;63427;49.654;6.596;2022-10-26T08:07:39;5;4;
74880;PMS5003;63427;49.654;6.596;2022-10-26T08:10:04;5;5;
74880;PMS5003;63427;49.654;6.596;2022-10-26T08:12:30;4;4;
74880;PMS5003;63427;49.654;6.596;2022-10-26T08:14:55;4;4;
74880;PMS5003;63427;49.654;6.596;2022-10-26T08:17:20;5;5;
74880;PMS5003;63427;49.654;6.596;2022-10-26T08:19:46;5;5;
74880;PMS5003;63427;49.654;6.596;2022-10-26T08:22:10;8;6;
74880;PMS5003;63427;49.654;6.596;2022-10-26T08:24:36;5;5;
74880;PMS5003;63427;49.654;6.596;2022-10-26T08:27:01;5;5;
74880;PMS5003;63427;49.654;6.596;2022-10-26T08:29:26;7;5;
74880;PMS5003;63427;49.654;6.596;2022-10-26T08:31:51;5;5;
74880;PMS5003;63427;49.654;6.596;2022-10-26T08:34:17;5;5;
74880;PMS5003;63427;49.654;6.596;2022-10-26T08:36:42;6;6;
74880;PMS5003;63427;49.654;6.596;2022-10-26T08:39:07;6;6;
74880;PMS5003;63427;49.654;6.596;2022-10-26T08:41:34;5;4;
74880;PMS5003;63427;49.654;6.596;2022-10-26T08:43:59;5;5;
74880;PMS5003;63427;49.654;6.596;2022-10-26T08:46:24;4;4;
74880;PMS5003;63427;49.654;6.596;2022-10-26T08:48:50;4;4;
74880;PMS5003;63427;49.654;6.596;2022-10-26T08:51:17;4;4;
74880;PMS5003;63427;49.654;6.596;2022-10-26T08:53:40;5;5;
74880;PMS5003;63427;49.654;6.596;2022-10-26T08:56:05;6;5;
74880;PMS5003;63427;49.654;6.596;2022-10-26T08:58:31;7;7;
74880;PMS5003;63427;49.654;6.596;2022-10-26T09:00:55;5;5;
74880;PMS5003;63427;49.654;6.596;2022-10-26T09:03:20;6;6;
74880;PMS5003;63427;49.654;6.596;2022-10-26T09:05:49;5;5;
74880;PMS5003;63427;49.654;6.596;2022-10-26T09:08:12;3;3;
74880;PMS5003;63427;49.654;6.596;2022-10-26T09:10:38;5;5;
74880;PMS5003;63427;49.654;6.596;2022-10-26T09:13:03;7;6;
74880;PMS5003;63427;49.654;6.596;2022-10-26T09:15:29;5;5;
74880;PMS5003;63427;49.654;6.596;2022-10-26T09:17:54;4;3;
74880;PMS5003;63427;49.654;6.596;2022-10-26T09:20:21;5;5;
74880;PMS5003;63427;49.654;6.596;2022-10-26T09:22:44;5;5;
74880;PMS5003;63427;49.654;6.596;2022-10-26T09:25:11;5;4;
74880;PMS5003;63427;49.654;6.596;2022-10-26T09:27:33;5;5;
74880;PMS5003;63427;49.654;6.596;2022-10-26T09:29:58;4;4;
74880;PMS5003;63427;49.654;6.596;2022-10-26T09:32:24;6;6;
74880;PMS5003;63427;49.654;6.596;2022-10-26T09:34:48;7;6;
74880;PMS5003;63427;49.654;6.596;2022-10-26T09:37:14;3;3;
74880;PMS5003;63427;49.654;6.596;2022-10-26T09:39:40;6;4;
74880;PMS5003;63427;49.654;6.596;2022-10-26T09:42:05;4;4;
74880;PMS5003;63427;49.654;6.596;2022-10-26T09:44:29;3;3;
74880;PMS5003;63427;49.654;6.596;2022-10-26T09:46:55;4;4;
74880;PMS5003;63427;49.654;6.596;2022-10-26T09:49:19;3;3;
74880;PMS5003;63427;49.654;6.596;2022-10-26T09:51:44;3;3;
74880;PMS5003;63427;49.654;6.596;2022-10-26T09:54:12;6;5;
74880;PMS5003;63427;49.654;6.596;2022-10-26T09:56:34;3;3;
74880;PMS5003;63427;49.654;6.596;2022-10-26T09:59:00;5;4;
74880;PMS5003;63427;49.654;6.596;2022-10-26T10:01:27;3;2;
74880;PMS5003;63427;49.654;6.596;2022-10-26T10:06:15;2;2;
74880;PMS5003;63427;49.654;6.596;2022-10-26T10:08:40;3;3;
74880;PMS5003;63427;49.654;6.596;2022-10-26T10:11:05;4;4;
74880;PMS5003;63427;49.654;6.596;2022-10-26T10:13:30;3;3;
74880;PMS5003;63427;49.654;6.596;2022-10-26T10:15:56;2;2;
74880;PMS5003;63427;49.654;6.596;2022-10-26T10:18:20;3;3;
74880;PMS5003;63427;49.654;6.596;2022-10-26T10:20:48;5;4;
74880;PMS5003;63427;49.654;6.596;2022-10-26T10:23:10;5;4;
74880;PMS5003;63427;49.654;6.596;2022-10-26T10:25:38;4;4;
74880;PMS5003;63427;49.654;6.596;2022-10-26T10:28:01;3;3;
74880;PMS5003;63427;49.654;6.596;2022-10-26T10:30:27;3;3;
74880;PMS5003;63427;49.654;6.596;2022-10-26T10:35:22;2;1;
74880;PMS5003;63427;49.654;6.596;2022-10-26T10:37:44;2;2;
74880;PMS5003;63427;49.654;6.596;2022-10-26T10:40:13;2;2;
74880;PMS5003;63427;49.654;6.596;2022-10-26T10:42:36;3;3;
74880;PMS5003;63427;49.654;6.596;2022-10-26T10:45:01;4;3;
74880;PMS5003;63427;49.654;6.596;2022-10-26T10:47:28;3;3;
74880;PMS5003;63427;49.654;6.596;2022-10-26T10:49:54;4;3;
74880;PMS5003;63427;49.654;6.596;2022-10-26T10:52:23;5;5;
74880;PMS5003;63427;49.654;6.596;2022-10-26T10:54:44;3;2;
74880;PMS5003;63427;49.654;6.596;2022-10-26T10:57:12;3;3;
74880;PMS5003;63427;49.654;6.596;2022-10-26T10:59:38;1;1;
74880;PMS5003;63427;49.654;6.596;2022-10-26T11:04:35;4;3;
74880;PMS5003;63427;49.654;6.596;2022-10-26T11:06:53;1;1;
74880;PMS5003;63427;49.654;6.596;2022-10-26T11:09:20;4;4;
74880;PMS5003;63427;49.654;6.596;2022-10-26T11:11:45;2;2;
74880;PMS5003;63427;49.654;6.596;2022-10-26T11:14:11;4;3;
74880;PMS5003;63427;49.654;6.596;2022-10-26T11:16:37;3;3;
74880;PMS5003;63427;49.654;6.596;2022-10-26T11:19:03;3;3;
74880;PMS5003;63427;49.654;6.596;2022-10-26T11:21:28;2;2;
74880;PMS5003;63427;49.654;6.596;2022-10-26T11:23:55;3;2;
74880;PMS5003;63427;49.654;6.596;2022-10-26T11:26:20;2;2;
74880;PMS5003;63427;49.654;6.596;2022-10-26T11:28:46;5;4;
74880;PMS5003;63427;49.654;6.596;2022-10-26T11:31:11;4;4;
74880;PMS5003;63427;49.654;6.596;2022-10-26T11:33:37;2;2;
74880;PMS5003;63427;49.654;6.596;2022-10-26T11:36:02;4;4;
74880;PMS5003;63427;49.654;6.596;2022-10-26T11:38:29;4;3;
74880;PMS5003;63427;49.654;6.596;2022-10-26T11:40:54;2;2;
74880;PMS5003;63427;49.654;6.596;2022-10-26T11:43:20;3;3;
74880;PMS5003;63427;49.654;6.596;2022-10-26T11:45:44;2;2;
74880;PMS5003;63427;49.654;6.596;2022-10-26T11:48:12;3;3;
74880;PMS5003;63427;49.654;6.596;2022-10-26T11:50:37;2;1;
74880;PMS5003;63427;49.654;6.596;2022-10-26T11:53:02;1;1;
74880;PMS5003;63427;49.654;6.596;2022-10-26T11:55:27;2;2;
74880;PMS5003;63427;49.654;6.596;2022-10-26T11:57:52;2;2;
74880;PMS5003;63427;49.654;6.596;2022-10-26T12:00:18;2;2;
74880;PMS5003;63427;49.654;6.596;2022-10-26T12:02:45;2;2;
74880;PMS5003;63427;49.654;6.596;2022-10-26T12:05:16;2;2;
74880;PMS5003;63427;49.654;6.596;2022-10-26T12:07:35;3;3;
74880;PMS5003;63427;49.654;6.596;2022-10-26T12:10:00;1;1;
74880;PMS5003;63427;49.654;6.596;2022-10-26T12:12:28;2;2;
74880;PMS5003;63427;49.654;6.596;2022-10-26T12:14:53;1;1;
74880;PMS5003;63427;49.654;6.596;2022-10-26T12:17:18;1;1;
74880;PMS5003;63427;49.654;6.596;2022-10-26T12:19:44;1;1;
74880;PMS5003;63427;49.654;6.596;2022-10-26T12:22:08;1;1;
74880;PMS5003;63427;49.654;6.596;2022-10-26T12:24:34;2;2;
74880;PMS5003;63427;49.654;6.596;2022-10-26T12:27:00;1;1;
74880;PMS5003;63427;49.654;6.596;2022-10-26T12:29:26;2;2;
74880;PMS5003;63427;49.654;6.596;2022-10-26T12:31:50;2;2;
74880;PMS5003;63427;49.654;6.596;2022-10-26T12:34:21;1;1;
74880;PMS5003;63427;49.654;6.596;2022-10-26T12:36:47;3;2;
74880;PMS5003;63427;49.654;6.596;2022-10-26T12:41:33;3;3;
74880;PMS5003;63427;49.654;6.596;2022-10-26T12:44:02;2;1;
74880;PMS5003;63427;49.654;6.596;2022-10-26T12:48:50;2;2;
74880;PMS5003;63427;49.654;6.596;2022-10-26T12:51:17;1;1;
74880;PMS5003;63427;49.654;6.596;2022-10-26T12:53:41;1;1;
74880;PMS5003;63427;49.654;6.596;2022-10-26T12:56:08;2;2;
74880;PMS5003;63427;49.654;6.596;2022-10-26T12:58:37;1;1;
74880;PMS5003;63427;49.654;6.596;2022-10-26T13:03:25;0;0;
74880;PMS5003;63427;49.654;6.596;2022-10-26T13:08:14;0;0;
74880;PMS5003;63427;49.654;6.596;2022-10-26T13:10:42;1;1;
74880;PMS5003;63427;49.654;6.596;2022-10-26T13:13:06;1;1;
74880;PMS5003;63427;49.654;6.596;2022-10-26T13:15:32;2;1;
74880;PMS5003;63427;49.654;6.596;2022-10-26T13:17:58;0;0;
74880;PMS5003;63427;49.654;6.596;2022-10-26T13:20:22;1;1;
74880;PMS5003;63427;49.654;6.596;2022-10-26T13:22:48;1;0;
74880;PMS5003;63427;49.654;6.596;2022-10-26T13:25:17;1;1;
74880;PMS5003;63427;49.654;6.596;2022-10-26T13:27:40;2;2;
74880;PMS5003;63427;49.654;6.596;2022-10-26T13:32:32;0;0;
74880;PMS5003;63427;49.654;6.596;2022-10-26T13:34:56;2;2;
74880;PMS5003;63427;49.654;6.596;2022-10-26T13:37:22;1;1;
74880;PMS5003;63427;49.654;6.596;2022-10-26T13:39:48;0;0;
74880;PMS5003;63427;49.654;6.596;2022-10-26T13:42:13;2;1;
74880;PMS5003;63427;49.654;6.596;2022-10-26T13:44:41;0;0;
74880;PMS5003;63427;49.654;6.596;2022-10-26T13:47:06;0;0;
74880;PMS5003;63427;49.654;6.596;2022-10-26T13:49:32;1;1;
74880;PMS5003;63427;49.654;6.596;2022-10-26T13:51:55;0;0;
74880;PMS5003;63427;49.654;6.596;2022-10-26T13:54:22;0;0;
74880;PMS5003;63427;49.654;6.596;2022-10-26T13:56:51;0;0;
74880;PMS5003;63427;49.654;6.596;2022-10-26T13:59:12;1;0;
74880;PMS5003;63427;49.654;6.596;2022-10-26T14:01:38;0;0;
74880;PMS5003;63427;49.654;6.596;2022-10-26T14:06:30;1;1;
74880;PMS5003;63427;49.654;6.596;2022-10-26T14:08:55;1;1;
74880;PMS5003;63427;49.654;6.596;2022-10-26T14:11:20;0;0;
74880;PMS5003;63427;49.654;6.596;2022-10-26T14:13:46;1;1;
74880;PMS5003;63427;49.654;6.596;2022-10-26T14:16:11;0;0;
74880;PMS5003;63427;49.654;6.596;2022-10-26T14:18:37;0;0;
74880;PMS5003;63427;49.654;6.596;2022-10-26T14:21:02;0;0;
74880;PMS5003;63427;49.654;6.596;2022-10-26T14:23:31;0;0;
74880;PMS5003;63427;49.654;6.596;2022-10-26T14:25:53;0;0;
74880;PMS5003;63427;49.654;6.596;2022-10-26T14:28:20;1;1;
74880;PMS5003;63427;49.654;6.596;2022-10-26T14:30:45;1;0;
74880;PMS5003;63427;49.654;6.596;2022-10-26T14:35:36;1;1;
74880;PMS5003;63427;49.654;6.596;2022-10-26T14:38:02;0;0;
74880;PMS5003;63427;49.654;6.596;2022-10-26T14:40:28;1;1;
74880;PMS5003;63427;49.654;6.596;2022-10-26T14:42:53;0;0;
74880;PMS5003;63427;49.654;6.596;2022-10-26T14:45:21;0;0;
74880;PMS5003;63427;49.654;6.596;2022-10-26T14:47:44;0;0;
74880;PMS5003;63427;49.654;6.596;2022-10-26T14:52:36;1;1;
74880;PMS5003;63427;49.654;6.596;2022-10-26T14:55:02;1;1;
74880;PMS5003;63427;49.654;6.596;2022-10-26T14:57:30;1;1;
74880;PMS5003;63427;49.654;6.596;2022-10-26T15:02:18;0;0;
74880;PMS5003;63427;49.654;6.596;2022-10-26T15:07:18;0;0;
74880;PMS5003;63427;49.654;6.596;2022-10-26T15:09:37;0;0;
74880;PMS5003;63427;49.654;6.596;2022-10-26T15:12:01;1;1;
74880;PMS5003;63427;49.654;6.596;2022-10-26T15:14:27;1;1;
74880;PMS5003;63427;49.654;6.596;2022-10-26T15:16:53;0;0;
74880;PMS5003;63427;49.654;6.596;2022-10-26T15:19:18;0;0;
74880;PMS5003;63427;49.654;6.596;2022-10-26T15:21:44;2;2;
74880;PMS5003;63427;49.654;6.596;2022-10-26T15:24:12;0;0;
74880;PMS5003;63427;49.654;6.596;2022-10-26T15:26:40;0;0;
74880;PMS5003;63427;49.654;6.596;2022-10-26T15:29:01;0;0;
74880;PMS5003;63427;49.654;6.596;2022-10-26T15:31:28;1;1;
74880;PMS5003;63427;49.654;6.596;2022-10-26T15:36:18;0;0;
74880;PMS5003;63427;49.654;6.596;2022-10-26T15:38:44;1;1;
74880;PMS5003;63427;49.654;6.596;2022-10-26T15:41:13;1;1;
74880;PMS5003;63427;49.654;6.596;2022-10-26T15:43:35;1;1;
74880;PMS5003;63427;49.654;6.596;2022-10-26T15:46:01;1;1;
74880;PMS5003;63427;49.654;6.596;2022-10-26T15:48:27;2;2;
74880;PMS5003;63427;49.654;6.596;2022-10-26T15:50:52;1;1;
74880;PMS5003;63427;49.654;6.596;2022-10-26T15:53:19;1;0;
74880;PMS5003;63427;49.654;6.596;2022-10-26T15:55:43;1;1;
74880;PMS5003;63427;49.654;6.596;2022-10-26T15:58:09;1;1;
74880;PMS5003;63427;49.654;6.596;2022-10-26T16:00:35;1;1;
74880;PMS5003;63427;49.654;6.596;2022-10-26T16:03:01;1;1;
74880;PMS5003;63427;49.654;6.596;2022-10-26T16:05:27;1;1;
74880;PMS5003;63427;49.654;6.596;2022-10-26T16:07:52;1;1;
74880;PMS5003;63427;49.654;6.596;2022-10-26T16:10:19;0;0;
74880;PMS5003;63427;49.654;6.596;2022-10-26T16:12:44;1;1;
74880;PMS5003;63427;49.654;6.596;2022-10-26T16:15:14;1;1;
74880;PMS5003;63427;49.654;6.596;2022-10-26T16:17:35;1;1;
74880;PMS5003;63427;49.654;6.596;2022-10-26T16:20:01;1;1;
74880;PMS5003;63427;49.654;6.596;2022-10-26T16:22:27;1;1;
74880;PMS5003;63427;49.654;6.596;2022-10-26T16:24:53;1;0;
74880;PMS5003;63427;49.654;6.596;2022-10-26T16:27:19;2;2;
74880;PMS5003;63427;49.654;6.596;2022-10-26T16:29:45;2;1;
74880;PMS5003;63427;49.654;6.596;2022-10-26T16:32:10;1;1;
74880;PMS5003;63427;49.654;6.596;2022-10-26T16:34:35;1;1;
74880;PMS5003;63427;49.654;6.596;2022-10-26T16:37:00;2;2;
74880;PMS5003;63427;49.654;6.596;2022-10-26T16:39:25;1;1;
74880;PMS5003;63427;49.654;6.596;2022-10-26T16:41:51;1;0;
74880;PMS5003;63427;49.654;6.596;2022-10-26T16:44:16;3;2;
74880;PMS5003;63427;49.654;6.596;2022-10-26T16:46:41;2;1;
74880;PMS5003;63427;49.654;6.596;2022-10-26T16:49:06;2;1;
74880;PMS5003;63427;49.654;6.596;2022-10-26T16:51:31;2;1;
74880;PMS5003;63427;49.654;6.596;2022-10-26T16:53:56;1;1;
74880;PMS5003;63427;49.654;6.596;2022-10-26T16:56:22;2;2;
74880;PMS5003;63427;49.654;6.596;2022-10-26T16:58:46;3;2;
74880;PMS5003;63427;49.654;6.596;2022-10-26T17:01:12;2;2;
74880;PMS5003;63427;49.654;6.596;2022-10-26T17:03:36;3;2;
74880;PMS5003;63427;49.654;6.596;2022-10-26T17:06:02;5;5;